Terminal Aerodrome Forecast
Issued by NWS Wilmington, OH

Current Version | Previous Version | Graphics & Text | Print | Product List | Glossary On
Versions: 1 2 3 4 5 6 7 8 9 10 11 12 13 14 15 16
000
FTUS41 KILN 280500
TAFILN
TAF
KILN 280539Z 2806/2906 21012KT P6SM OVC200
     FM281300 22014G24KT P6SM VCSH OVC040
     FM281700 23014G24KT 5SM -SHRA BR VCTS OVC025CB
     FM282100 27012KT P6SM SCT040 OVC100
     FM282300 26008KT P6SM BKN200=

USA.gov is the U.S. government's official web portal to all federal, state and local government web resources and services.